sensor_id;sensor_type;location;lat;lon;timestamp;P1;durP1;ratioP1;P2;durP2;ratioP2
13943;SDS011;7044;53.286;8.534;2023-07-13T00:00:36;6.80;;;2.60;;
13943;SDS011;7044;53.286;8.534;2023-07-13T00:03:04;8.98;;;2.55;;
13943;SDS011;7044;53.286;8.534;2023-07-13T00:05:31;7.25;;;2.90;;
13943;SDS011;7044;53.286;8.534;2023-07-13T00:07:58;5.40;;;2.92;;
13943;SDS011;7044;53.286;8.534;2023-07-13T00:10:25;6.22;;;3.00;;
13943;SDS011;7044;53.286;8.534;2023-07-13T00:12:52;4.07;;;3.08;;
13943;SDS011;7044;53.286;8.534;2023-07-13T00:15:21;6.05;;;3.55;;
13943;SDS011;7044;53.286;8.534;2023-07-13T00:17:51;7.15;;;2.70;;
13943;SDS011;7044;53.286;8.534;2023-07-13T00:20:19;7.45;;;3.28;;
13943;SDS011;7044;53.286;8.534;2023-07-13T00:22:47;5.40;;;3.20;;
13943;SDS011;7044;53.286;8.534;2023-07-13T00:25:14;5.93;;;3.17;;
13943;SDS011;7044;53.286;8.534;2023-07-13T00:27:41;4.45;;;2.90;;
13943;SDS011;7044;53.286;8.534;2023-07-13T00:30:09;18.40;;;4.10;;
13943;SDS011;7044;53.286;8.534;2023-07-13T00:32:37;13.85;;;3.45;;
13943;SDS011;7044;53.286;8.534;2023-07-13T00:35:06;6.43;;;2.80;;
13943;SDS011;7044;53.286;8.534;2023-07-13T00:37:33;9.57;;;3.25;;
13943;SDS011;7044;53.286;8.534;2023-07-13T00:40:00;4.35;;;2.97;;
13943;SDS011;7044;53.286;8.534;2023-07-13T00:42:28;5.03;;;3.05;;
13943;SDS011;7044;53.286;8.534;2023-07-13T00:45:02;10.02;;;2.92;;
13943;SDS011;7044;53.286;8.534;2023-07-13T00:47:31;11.32;;;3.03;;
13943;SDS011;7044;53.286;8.534;2023-07-13T00:49:58;3.05;;;2.75;;
13943;SDS011;7044;53.286;8.534;2023-07-13T00:52:26;7.32;;;3.20;;
13943;SDS011;7044;53.286;8.534;2023-07-13T00:54:54;5.28;;;2.70;;
13943;SDS011;7044;53.286;8.534;2023-07-13T00:57:22;8.13;;;3.03;;
13943;SDS011;7044;53.286;8.534;2023-07-13T00:59:50;9.93;;;3.15;;
13943;SDS011;7044;53.286;8.534;2023-07-13T01:02:20;4.03;;;2.97;;
13943;SDS011;7044;53.286;8.534;2023-07-13T01:04:47;3.83;;;3.20;;
13943;SDS011;7044;53.286;8.534;2023-07-13T01:07:14;6.32;;;3.33;;
13943;SDS011;7044;53.286;8.534;2023-07-13T01:09:43;12.65;;;3.53;;
13943;SDS011;7044;53.286;8.534;2023-07-13T01:12:10;6.32;;;3.03;;
13943;SDS011;7044;53.286;8.534;2023-07-13T01:14:38;3.90;;;2.72;;
13943;SDS011;7044;53.286;8.534;2023-07-13T01:17:05;6.97;;;3.00;;
13943;SDS011;7044;53.286;8.534;2023-07-13T01:19:36;3.60;;;2.80;;
13943;SDS011;7044;53.286;8.534;2023-07-13T01:22:06;9.35;;;3.55;;
13943;SDS011;7044;53.286;8.534;2023-07-13T01:24:36;5.47;;;2.97;;
13943;SDS011;7044;53.286;8.534;2023-07-13T01:27:04;9.25;;;2.75;;
13943;SDS011;7044;53.286;8.534;2023-07-13T01:29:33;7.53;;;2.95;;
13943;SDS011;7044;53.286;8.534;2023-07-13T01:32:07;6.60;;;2.72;;
13943;SDS011;7044;53.286;8.534;2023-07-13T01:34:35;4.25;;;3.03;;
13943;SDS011;7044;53.286;8.534;2023-07-13T01:37:02;7.15;;;3.15;;
13943;SDS011;7044;53.286;8.534;2023-07-13T01:39:31;5.97;;;3.22;;
13943;SDS011;7044;53.286;8.534;2023-07-13T01:41:58;7.88;;;3.70;;
13943;SDS011;7044;53.286;8.534;2023-07-13T01:44:25;7.38;;;3.75;;
13943;SDS011;7044;53.286;8.534;2023-07-13T01:46:52;10.48;;;4.15;;
13943;SDS011;7044;53.286;8.534;2023-07-13T01:49:19;4.20;;;3.80;;
13943;SDS011;7044;53.286;8.534;2023-07-13T01:51:46;4.78;;;3.72;;
13943;SDS011;7044;53.286;8.534;2023-07-13T01:54:12;8.55;;;4.82;;
13943;SDS011;7044;53.286;8.534;2023-07-13T01:56:41;7.43;;;3.30;;
13943;SDS011;7044;53.286;8.534;2023-07-13T01:59:08;10.85;;;4.55;;
13943;SDS011;7044;53.286;8.534;2023-07-13T02:01:35;4.88;;;3.80;;
13943;SDS011;7044;53.286;8.534;2023-07-13T02:04:02;8.55;;;3.72;;
13943;SDS011;7044;53.286;8.534;2023-07-13T02:06:29;5.15;;;4.20;;
13943;SDS011;7044;53.286;8.534;2023-07-13T02:08:56;8.13;;;4.18;;
13943;SDS011;7044;53.286;8.534;2023-07-13T02:11:23;5.43;;;3.83;;
13943;SDS011;7044;53.286;8.534;2023-07-13T02:13:51;6.22;;;3.72;;
13943;SDS011;7044;53.286;8.534;2023-07-13T02:16:18;5.30;;;3.58;;
13943;SDS011;7044;53.286;8.534;2023-07-13T02:18:45;7.70;;;3.70;;
13943;SDS011;7044;53.286;8.534;2023-07-13T02:21:12;6.55;;;3.63;;
13943;SDS011;7044;53.286;8.534;2023-07-13T02:23:39;8.50;;;3.90;;
13943;SDS011;7044;53.286;8.534;2023-07-13T02:26:05;11.25;;;4.72;;
13943;SDS011;7044;53.286;8.534;2023-07-13T02:28:32;11.55;;;4.15;;
13943;SDS011;7044;53.286;8.534;2023-07-13T02:31:05;9.38;;;4.40;;
13943;SDS011;7044;53.286;8.534;2023-07-13T02:33:33;6.05;;;4.35;;
13943;SDS011;7044;53.286;8.534;2023-07-13T02:36:02;7.05;;;4.05;;
13943;SDS011;7044;53.286;8.534;2023-07-13T02:38:30;7.53;;;4.05;;
13943;SDS011;7044;53.286;8.534;2023-07-13T02:40:58;7.07;;;3.88;;
13943;SDS011;7044;53.286;8.534;2023-07-13T02:43:26;5.07;;;3.30;;
13943;SDS011;7044;53.286;8.534;2023-07-13T02:45:53;3.90;;;3.03;;
13943;SDS011;7044;53.286;8.534;2023-07-13T02:48:21;9.52;;;2.83;;
13943;SDS011;7044;53.286;8.534;2023-07-13T02:50:48;6.47;;;2.95;;
13943;SDS011;7044;53.286;8.534;2023-07-13T02:53:15;10.73;;;3.15;;
13943;SDS011;7044;53.286;8.534;2023-07-13T02:55:42;4.18;;;2.60;;
13943;SDS011;7044;53.286;8.534;2023-07-13T02:58:12;4.53;;;2.78;;
13943;SDS011;7044;53.286;8.534;2023-07-13T03:00:41;5.30;;;2.90;;
13943;SDS011;7044;53.286;8.534;2023-07-13T03:03:08;5.60;;;3.35;;
13943;SDS011;7044;53.286;8.534;2023-07-13T03:05:39;10.40;;;3.25;;
13943;SDS011;7044;53.286;8.534;2023-07-13T03:08:08;5.55;;;3.45;;
13943;SDS011;7044;53.286;8.534;2023-07-13T03:10:35;7.00;;;3.45;;
13943;SDS011;7044;53.286;8.534;2023-07-13T03:13:02;9.40;;;4.15;;
13943;SDS011;7044;53.286;8.534;2023-07-13T03:15:29;6.50;;;4.07;;
13943;SDS011;7044;53.286;8.534;2023-07-13T03:17:56;8.30;;;4.25;;
13943;SDS011;7044;53.286;8.534;2023-07-13T03:20:23;9.73;;;4.47;;
13943;SDS011;7044;53.286;8.534;2023-07-13T03:22:51;10.02;;;4.38;;
13943;SDS011;7044;53.286;8.534;2023-07-13T03:25:18;12.48;;;4.47;;
13943;SDS011;7044;53.286;8.534;2023-07-13T03:27:45;5.05;;;3.60;;
13943;SDS011;7044;53.286;8.534;2023-07-13T03:30:12;6.80;;;3.90;;
13943;SDS011;7044;53.286;8.534;2023-07-13T03:32:39;7.20;;;3.67;;
13943;SDS011;7044;53.286;8.534;2023-07-13T03:35:06;8.75;;;3.25;;
13943;SDS011;7044;53.286;8.534;2023-07-13T03:37:34;10.05;;;3.75;;
13943;SDS011;7044;53.286;8.534;2023-07-13T03:40:09;5.53;;;2.40;;
13943;SDS011;7044;53.286;8.534;2023-07-13T03:42:36;5.60;;;2.67;;
13943;SDS011;7044;53.286;8.534;2023-07-13T03:45:04;5.47;;;2.92;;
13943;SDS011;7044;53.286;8.534;2023-07-13T03:47:31;6.97;;;2.97;;
13943;SDS011;7044;53.286;8.534;2023-07-13T03:49:58;6.50;;;2.22;;
13943;SDS011;7044;53.286;8.534;2023-07-13T03:52:25;4.15;;;2.50;;
13943;SDS011;7044;53.286;8.534;2023-07-13T03:54:52;7.28;;;2.30;;
13943;SDS011;7044;53.286;8.534;2023-07-13T03:57:20;10.88;;;3.17;;
13943;SDS011;7044;53.286;8.534;2023-07-13T03:59:48;7.18;;;2.30;;
13943;SDS011;7044;53.286;8.534;2023-07-13T04:02:14;5.93;;;2.33;;
13943;SDS011;7044;53.286;8.534;2023-07-13T04:04:42;10.43;;;3.00;;
13943;SDS011;7044;53.286;8.534;2023-07-13T04:07:09;6.15;;;2.40;;
13943;SDS011;7044;53.286;8.534;2023-07-13T04:09:36;7.18;;;2.55;;
13943;SDS011;7044;53.286;8.534;2023-07-13T04:12:03;5.45;;;2.40;;
13943;SDS011;7044;53.286;8.534;2023-07-13T04:14:32;6.80;;;2.22;;
13943;SDS011;7044;53.286;8.534;2023-07-13T04:16:58;8.18;;;2.70;;
13943;SDS011;7044;53.286;8.534;2023-07-13T04:19:25;6.63;;;2.60;;
13943;SDS011;7044;53.286;8.534;2023-07-13T04:21:52;4.13;;;1.88;;
13943;SDS011;7044;53.286;8.534;2023-07-13T04:24:19;5.85;;;2.40;;
13943;SDS011;7044;53.286;8.534;2023-07-13T04:26:46;5.25;;;2.95;;
13943;SDS011;7044;53.286;8.534;2023-07-13T04:29:13;8.02;;;2.30;;
13943;SDS011;7044;53.286;8.534;2023-07-13T04:31:41;8.52;;;2.45;;
13943;SDS011;7044;53.286;8.534;2023-07-13T04:34:08;6.53;;;2.45;;
13943;SDS011;7044;53.286;8.534;2023-07-13T04:36:35;8.43;;;1.90;;
13943;SDS011;7044;53.286;8.534;2023-07-13T04:39:02;6.13;;;2.30;;
13943;SDS011;7044;53.286;8.534;2023-07-13T04:41:29;6.00;;;2.35;;
13943;SDS011;7044;53.286;8.534;2023-07-13T04:43:56;8.90;;;2.53;;
13943;SDS011;7044;53.286;8.534;2023-07-13T04:46:23;9.38;;;2.33;;
13943;SDS011;7044;53.286;8.534;2023-07-13T04:48:51;7.80;;;2.20;;
13943;SDS011;7044;53.286;8.534;2023-07-13T04:51:19;10.40;;;2.60;;
13943;SDS011;7044;53.286;8.534;2023-07-13T04:53:46;9.15;;;2.25;;
13943;SDS011;7044;53.286;8.534;2023-07-13T04:56:13;6.85;;;2.03;;
13943;SDS011;7044;53.286;8.534;2023-07-13T04:58:40;5.50;;;2.38;;
13943;SDS011;7044;53.286;8.534;2023-07-13T05:01:07;7.72;;;2.47;;
13943;SDS011;7044;53.286;8.534;2023-07-13T05:03:35;12.45;;;2.70;;
13943;SDS011;7044;53.286;8.534;2023-07-13T05:06:04;6.20;;;2.22;;
13943;SDS011;7044;53.286;8.534;2023-07-13T05:08:35;8.20;;;2.30;;
13943;SDS011;7044;53.286;8.534;2023-07-13T05:11:03;7.65;;;2.00;;
13943;SDS011;7044;53.286;8.534;2023-07-13T05:13:30;8.20;;;2.40;;
13943;SDS011;7044;53.286;8.534;2023-07-13T05:15:58;6.78;;;2.40;;
13943;SDS011;7044;53.286;8.534;2023-07-13T05:18:26;7.75;;;2.15;;
13943;SDS011;7044;53.286;8.534;2023-07-13T05:20:59;4.68;;;2.30;;
13943;SDS011;7044;53.286;8.534;2023-07-13T05:23:29;6.35;;;2.25;;
13943;SDS011;7044;53.286;8.534;2023-07-13T05:25:56;14.25;;;2.67;;
13943;SDS011;7044;53.286;8.534;2023-07-13T05:28:24;4.95;;;2.55;;
13943;SDS011;7044;53.286;8.534;2023-07-13T05:30:51;11.15;;;2.45;;
13943;SDS011;7044;53.286;8.534;2023-07-13T05:33:20;6.60;;;2.28;;
13943;SDS011;7044;53.286;8.534;2023-07-13T05:35:47;4.05;;;2.30;;
13943;SDS011;7044;53.286;8.534;2023-07-13T05:38:14;7.82;;;2.50;;
13943;SDS011;7044;53.286;8.534;2023-07-13T05:40:43;8.05;;;3.17;;
13943;SDS011;7044;53.286;8.534;2023-07-13T05:43:10;4.43;;;2.05;;
13943;SDS011;7044;53.286;8.534;2023-07-13T05:45:37;5.28;;;2.47;;
13943;SDS011;7044;53.286;8.534;2023-07-13T05:48:05;8.93;;;2.75;;
13943;SDS011;7044;53.286;8.534;2023-07-13T05:50:32;20.10;;;2.75;;
13943;SDS011;7044;53.286;8.534;2023-07-13T05:52:59;7.25;;;2.63;;
13943;SDS011;7044;53.286;8.534;2023-07-13T05:55:26;9.02;;;2.60;;
13943;SDS011;7044;53.286;8.534;2023-07-13T05:57:54;7.40;;;2.35;;
13943;SDS011;7044;53.286;8.534;2023-07-13T06:00:23;9.07;;;3.28;;
13943;SDS011;7044;53.286;8.534;2023-07-13T06:02:50;5.50;;;2.03;;
13943;SDS011;7044;53.286;8.534;2023-07-13T06:05:17;11.82;;;2.53;;
13943;SDS011;7044;53.286;8.534;2023-07-13T06:07:44;8.88;;;2.75;;
13943;SDS011;7044;53.286;8.534;2023-07-13T06:10:11;7.47;;;2.60;;
13943;SDS011;7044;53.286;8.534;2023-07-13T06:12:37;6.93;;;2.55;;
13943;SDS011;7044;53.286;8.534;2023-07-13T06:15:07;11.13;;;2.92;;
13943;SDS011;7044;53.286;8.534;2023-07-13T06:17:34;5.88;;;2.60;;
13943;SDS011;7044;53.286;8.534;2023-07-13T06:20:01;7.55;;;2.72;;
13943;SDS011;7044;53.286;8.534;2023-07-13T06:22:28;9.20;;;2.38;;
13943;SDS011;7044;53.286;8.534;2023-07-13T06:24:55;16.92;;;3.00;;
13943;SDS011;7044;53.286;8.534;2023-07-13T06:27:22;6.30;;;2.35;;
13943;SDS011;7044;53.286;8.534;2023-07-13T06:29:49;7.32;;;2.95;;
13943;SDS011;7044;53.286;8.534;2023-07-13T06:32:17;7.22;;;3.03;;
13943;SDS011;7044;53.286;8.534;2023-07-13T06:34:44;12.13;;;3.28;;
13943;SDS011;7044;53.286;8.534;2023-07-13T06:37:11;8.65;;;2.90;;
13943;SDS011;7044;53.286;8.534;2023-07-13T06:39:38;13.75;;;3.20;;
13943;SDS011;7044;53.286;8.534;2023-07-13T06:42:05;10.18;;;3.03;;
13943;SDS011;7044;53.286;8.534;2023-07-13T06:44:32;8.18;;;2.83;;
13943;SDS011;7044;53.286;8.534;2023-07-13T06:46:59;9.68;;;2.83;;
13943;SDS011;7044;53.286;8.534;2023-07-13T06:49:28;6.70;;;2.30;;
13943;SDS011;7044;53.286;8.534;2023-07-13T06:51:54;7.57;;;2.35;;
13943;SDS011;7044;53.286;8.534;2023-07-13T06:54:21;9.00;;;2.88;;
13943;SDS011;7044;53.286;8.534;2023-07-13T06:56:48;5.22;;;2.70;;
13943;SDS011;7044;53.286;8.534;2023-07-13T06:59:15;8.80;;;2.60;;
13943;SDS011;7044;53.286;8.534;2023-07-13T07:01:42;7.38;;;2.92;;
13943;SDS011;7044;53.286;8.534;2023-07-13T07:04:09;7.50;;;3.78;;
13943;SDS011;7044;53.286;8.534;2023-07-13T07:06:37;9.13;;;2.70;;
13943;SDS011;7044;53.286;8.534;2023-07-13T07:09:04;17.15;;;3.38;;
13943;SDS011;7044;53.286;8.534;2023-07-13T07:11:31;9.95;;;3.20;;
13943;SDS011;7044;53.286;8.534;2023-07-13T07:13:57;8.00;;;3.30;;
13943;SDS011;7044;53.286;8.534;2023-07-13T07:16:24;7.47;;;2.85;;
13943;SDS011;7044;53.286;8.534;2023-07-13T07:18:52;6.90;;;2.80;;
13943;SDS011;7044;53.286;8.534;2023-07-13T07:21:19;16.67;;;3.60;;
13943;SDS011;7044;53.286;8.534;2023-07-13T07:23:49;9.00;;;4.40;;
13943;SDS011;7044;53.286;8.534;2023-07-13T07:26:16;10.30;;;3.20;;
13943;SDS011;7044;53.286;8.534;2023-07-13T07:28:42;7.20;;;2.83;;
13943;SDS011;7044;53.286;8.534;2023-07-13T07:31:10;9.70;;;4.53;;
13943;SDS011;7044;53.286;8.534;2023-07-13T07:33:36;10.23;;;3.92;;
13943;SDS011;7044;53.286;8.534;2023-07-13T07:36:03;7.97;;;3.33;;
13943;SDS011;7044;53.286;8.534;2023-07-13T07:38:30;14.77;;;4.03;;
13943;SDS011;7044;53.286;8.534;2023-07-13T07:41:00;10.02;;;2.97;;
13943;SDS011;7044;53.286;8.534;2023-07-13T07:43:29;9.02;;;3.45;;
13943;SDS011;7044;53.286;8.534;2023-07-13T07:45:56;7.65;;;2.85;;
13943;SDS011;7044;53.286;8.534;2023-07-13T07:48:23;8.32;;;3.28;;
13943;SDS011;7044;53.286;8.534;2023-07-13T07:50:50;6.10;;;3.50;;
13943;SDS011;7044;53.286;8.534;2023-07-13T07:53:16;8.80;;;3.60;;
13943;SDS011;7044;53.286;8.534;2023-07-13T07:55:43;9.82;;;3.58;;
13943;SDS011;7044;53.286;8.534;2023-07-13T07:58:12;9.48;;;3.10;;
13943;SDS011;7044;53.286;8.534;2023-07-13T08:00:39;10.07;;;3.53;;
13943;SDS011;7044;53.286;8.534;2023-07-13T08:03:06;7.43;;;3.40;;
13943;SDS011;7044;53.286;8.534;2023-07-13T08:05:34;6.82;;;2.75;;
13943;SDS011;7044;53.286;8.534;2023-07-13T08:08:01;8.07;;;2.85;;
13943;SDS011;7044;53.286;8.534;2023-07-13T08:10:28;5.63;;;3.30;;
13943;SDS011;7044;53.286;8.534;2023-07-13T08:12:55;11.35;;;3.22;;
13943;SDS011;7044;53.286;8.534;2023-07-13T08:15:23;7.75;;;3.10;;
13943;SDS011;7044;53.286;8.534;2023-07-13T08:17:50;4.82;;;3.10;;
13943;SDS011;7044;53.286;8.534;2023-07-13T08:20:17;7.50;;;2.90;;
13943;SDS011;7044;53.286;8.534;2023-07-13T08:22:44;7.03;;;2.90;;
13943;SDS011;7044;53.286;8.534;2023-07-13T08:25:11;7.60;;;3.65;;
13943;SDS011;7044;53.286;8.534;2023-07-13T08:27:38;7.32;;;3.50;;
13943;SDS011;7044;53.286;8.534;2023-07-13T08:30:05;12.98;;;3.60;;
13943;SDS011;7044;53.286;8.534;2023-07-13T08:32:35;9.52;;;2.75;;
13943;SDS011;7044;53.286;8.534;2023-07-13T08:35:03;7.80;;;2.88;;
13943;SDS011;7044;53.286;8.534;2023-07-13T08:37:31;3.78;;;2.25;;
13943;SDS011;7044;53.286;8.534;2023-07-13T08:39:58;8.23;;;2.72;;
13943;SDS011;7044;53.286;8.534;2023-07-13T08:42:28;14.80;;;3.00;;
13943;SDS011;7044;53.286;8.534;2023-07-13T08:44:59;9.38;;;2.95;;
13943;SDS011;7044;53.286;8.534;2023-07-13T08:47:44;8.13;;;3.47;;
13943;SDS011;7044;53.286;8.534;2023-07-13T08:50:17;5.07;;;2.55;;
13943;SDS011;7044;53.286;8.534;2023-07-13T08:52:46;8.30;;;2.70;;
13943;SDS011;7044;53.286;8.534;2023-07-13T08:55:15;10.32;;;2.40;;
13943;SDS011;7044;53.286;8.534;2023-07-13T08:57:45;6.80;;;2.17;;
13943;SDS011;7044;53.286;8.534;2023-07-13T09:00:17;4.70;;;2.03;;
13943;SDS011;7044;53.286;8.534;2023-07-13T09:02:50;7.43;;;2.63;;
13943;SDS011;7044;53.286;8.534;2023-07-13T09:05:22;7.68;;;2.38;;
13943;SDS011;7044;53.286;8.534;2023-07-13T09:08:01;7.60;;;2.65;;
13943;SDS011;7044;53.286;8.534;2023-07-13T09:10:37;5.13;;;2.20;;
13943;SDS011;7044;53.286;8.534;2023-07-13T09:13:13;5.38;;;2.33;;
13943;SDS011;7044;53.286;8.534;2023-07-13T09:15:50;5.82;;;2.17;;
13943;SDS011;7044;53.286;8.534;2023-07-13T09:18:21;6.95;;;2.22;;
13943;SDS011;7044;53.286;8.534;2023-07-13T09:20:54;6.43;;;1.95;;
13943;SDS011;7044;53.286;8.534;2023-07-13T09:23:26;5.30;;;2.10;;
13943;SDS011;7044;53.286;8.534;2023-07-13T09:25:58;10.35;;;5.00;;
13943;SDS011;7044;53.286;8.534;2023-07-13T09:28:29;5.97;;;1.98;;
13943;SDS011;7044;53.286;8.534;2023-07-13T09:31:01;3.75;;;1.90;;
13943;SDS011;7044;53.286;8.534;2023-07-13T09:33:33;5.85;;;2.13;;
13943;SDS011;7044;53.286;8.534;2023-07-13T09:36:00;3.55;;;2.00;;
13943;SDS011;7044;53.286;8.534;2023-07-13T09:38:28;4.05;;;2.00;;
13943;SDS011;7044;53.286;8.534;2023-07-13T09:41:11;3.10;;;1.70;;
13943;SDS011;7044;53.286;8.534;2023-07-13T09:44:02;4.28;;;2.38;;
13943;SDS011;7044;53.286;8.534;2023-07-13T09:46:36;3.15;;;1.58;;
13943;SDS011;7044;53.286;8.534;2023-07-13T09:49:07;5.55;;;1.92;;
13943;SDS011;7044;53.286;8.534;2023-07-13T09:51:36;6.82;;;2.10;;
13943;SDS011;7044;53.286;8.534;2023-07-13T09:54:04;8.10;;;1.95;;
13943;SDS011;7044;53.286;8.534;2023-07-13T09:56:31;3.88;;;1.77;;
13943;SDS011;7044;53.286;8.534;2023-07-13T09:58:58;15.50;;;2.40;;
13943;SDS011;7044;53.286;8.534;2023-07-13T10:01:31;6.75;;;2.20;;
13943;SDS011;7044;53.286;8.534;2023-07-13T10:03:59;4.32;;;2.03;;
13943;SDS011;7044;53.286;8.534;2023-07-13T10:06:28;5.72;;;2.13;;
13943;SDS011;7044;53.286;8.534;2023-07-13T10:08:56;4.55;;;1.63;;
13943;SDS011;7044;53.286;8.534;2023-07-13T10:11:24;2.28;;;1.55;;
13943;SDS011;7044;53.286;8.534;2023-07-13T10:13:55;5.03;;;1.80;;
13943;SDS011;7044;53.286;8.534;2023-07-13T10:16:25;3.38;;;1.88;;
13943;SDS011;7044;53.286;8.534;2023-07-13T10:18:58;3.47;;;1.98;;
13943;SDS011;7044;53.286;8.534;2023-07-13T10:21:28;4.22;;;2.17;;
13943;SDS011;7044;53.286;8.534;2023-07-13T10:24:02;4.13;;;1.98;;
13943;SDS011;7044;53.286;8.534;2023-07-13T10:26:33;3.75;;;1.92;;
13943;SDS011;7044;53.286;8.534;2023-07-13T10:29:02;6.32;;;1.95;;
13943;SDS011;7044;53.286;8.534;2023-07-13T10:31:40;4.57;;;2.00;;
13943;SDS011;7044;53.286;8.534;2023-07-13T10:34:11;3.05;;;1.75;;
13943;SDS011;7044;53.286;8.534;2023-07-13T10:36:41;4.07;;;2.67;;
13943;SDS011;7044;53.286;8.534;2023-07-13T10:39:13;5.10;;;1.80;;
13943;SDS011;7044;53.286;8.534;2023-07-13T10:41:43;6.65;;;1.90;;
13943;SDS011;7044;53.286;8.534;2023-07-13T10:44:15;4.22;;;2.10;;
13943;SDS011;7044;53.286;8.534;2023-07-13T10:46:50;5.90;;;1.88;;
13943;SDS011;7044;53.286;8.534;2023-07-13T10:49:19;4.03;;;1.55;;
13943;SDS011;7044;53.286;8.534;2023-07-13T10:51:48;4.70;;;1.65;;
13943;SDS011;7044;53.286;8.534;2023-07-13T10:54:18;3.05;;;1.65;;
13943;SDS011;7044;53.286;8.534;2023-07-13T10:56:50;6.22;;;1.60;;
13943;SDS011;7044;53.286;8.534;2023-07-13T10:59:23;1.83;;;1.38;;
13943;SDS011;7044;53.286;8.534;2023-07-13T11:01:55;2.55;;;1.45;;
13943;SDS011;7044;53.286;8.534;2023-07-13T11:04:23;2.85;;;1.58;;
13943;SDS011;7044;53.286;8.534;2023-07-13T11:06:56;2.72;;;1.25;;
13943;SDS011;7044;53.286;8.534;2023-07-13T11:09:31;4.65;;;1.20;;
13943;SDS011;7044;53.286;8.534;2023-07-13T11:12:02;2.35;;;1.50;;
13943;SDS011;7044;53.286;8.534;2023-07-13T11:14:35;3.13;;;1.65;;
13943;SDS011;7044;53.286;8.534;2023-07-13T11:19:51;4.85;;;1.50;;
13943;SDS011;7044;53.286;8.534;2023-07-13T11:22:24;4.05;;;1.55;;
13943;SDS011;7044;53.286;8.534;2023-07-13T11:25:27;2.53;;;1.48;;
13943;SDS011;7044;53.286;8.534;2023-07-13T11:30:48;4.30;;;1.35;;
13943;SDS011;7044;53.286;8.534;2023-07-13T11:33:17;2.03;;;1.23;;
13943;SDS011;7044;53.286;8.534;2023-07-13T11:35:49;2.30;;;1.40;;
13943;SDS011;7044;53.286;8.534;2023-07-13T11:38:22;2.42;;;0.95;;
13943;SDS011;7044;53.286;8.534;2023-07-13T11:40:54;2.83;;;1.15;;
13943;SDS011;7044;53.286;8.534;2023-07-13T11:43:22;1.42;;;1.20;;
13943;SDS011;7044;53.286;8.534;2023-07-13T11:45:50;1.10;;;1.00;;
13943;SDS011;7044;53.286;8.534;2023-07-13T11:48:19;1.42;;;1.20;;
13943;SDS011;7044;53.286;8.534;2023-07-13T11:50:54;1.10;;;1.00;;
13943;SDS011;7044;53.286;8.534;2023-07-13T11:53:27;1.88;;;1.73;;
13943;SDS011;7044;53.286;8.534;2023-07-13T11:55:55;3.28;;;1.40;;
13943;SDS011;7044;53.286;8.534;2023-07-13T11:58:24;0.90;;;0.90;;
13943;SDS011;7044;53.286;8.534;2023-07-13T12:00:53;1.25;;;1.10;;
13943;SDS011;7044;53.286;8.534;2023-07-13T12:03:23;1.23;;;1.08;;
13943;SDS011;7044;53.286;8.534;2023-07-13T12:05:55;1.70;;;1.00;;
13943;SDS011;7044;53.286;8.534;2023-07-13T12:08:24;2.58;;;1.60;;
13943;SDS011;7044;53.286;8.534;2023-07-13T12:10:58;1.20;;;1.10;;
13943;SDS011;7044;53.286;8.534;2023-07-13T12:13:26;1.58;;;1.45;;
13943;SDS011;7044;53.286;8.534;2023-07-13T12:15:55;3.13;;;1.58;;
13943;SDS011;7044;53.286;8.534;2023-07-13T12:18:24;1.75;;;1.50;;
13943;SDS011;7044;53.286;8.534;2023-07-13T12:20:57;4.00;;;1.80;;
13943;SDS011;7044;53.286;8.534;2023-07-13T12:23:25;1.73;;;1.55;;
13943;SDS011;7044;53.286;8.534;2023-07-13T12:25:58;1.92;;;1.40;;
13943;SDS011;7044;53.286;8.534;2023-07-13T12:28:34;3.15;;;1.80;;
13943;SDS011;7044;53.286;8.534;2023-07-13T12:31:03;2.88;;;1.83;;
13943;SDS011;7044;53.286;8.534;2023-07-13T12:33:31;2.33;;;1.80;;
13943;SDS011;7044;53.286;8.534;2023-07-13T12:35:59;3.45;;;1.75;;
13943;SDS011;7044;53.286;8.534;2023-07-13T12:38:28;2.08;;;1.90;;
13943;SDS011;7044;53.286;8.534;2023-07-13T12:40:57;1.92;;;1.75;;
13943;SDS011;7044;53.286;8.534;2023-07-13T12:43:25;3.35;;;2.00;;
13943;SDS011;7044;53.286;8.534;2023-07-13T12:45:57;3.65;;;2.20;;
13943;SDS011;7044;53.286;8.534;2023-07-13T12:48:26;1.92;;;1.42;;
13943;SDS011;7044;53.286;8.534;2023-07-13T12:50:53;1.88;;;1.00;;
13943;SDS011;7044;53.286;8.534;2023-07-13T12:53:23;1.20;;;0.82;;
13943;SDS011;7044;53.286;8.534;2023-07-13T12:55:59;1.42;;;0.98;;
13943;SDS011;7044;53.286;8.534;2023-07-13T12:58:36;0.73;;;0.73;;
13943;SDS011;7044;53.286;8.534;2023-07-13T13:01:05;3.00;;;0.90;;
13943;SDS011;7044;53.286;8.534;2023-07-13T13:03:35;2.53;;;0.90;;
13943;SDS011;7044;53.286;8.534;2023-07-13T13:06:06;0.85;;;0.85;;
13943;SDS011;7044;53.286;8.534;2023-07-13T13:08:49;1.75;;;1.20;;
13943;SDS011;7044;53.286;8.534;2023-07-13T13:11:19;3.15;;;1.17;;
13943;SDS011;7044;53.286;8.534;2023-07-13T13:13:48;1.15;;;0.90;;
13943;SDS011;7044;53.286;8.534;2023-07-13T13:16:17;0.85;;;0.80;;
13943;SDS011;7044;53.286;8.534;2023-07-13T13:18:46;0.63;;;0.63;;
13943;SDS011;7044;53.286;8.534;2023-07-13T13:21:15;0.93;;;0.85;;
13943;SDS011;7044;53.286;8.534;2023-07-13T13:23:42;1.38;;;0.90;;
13943;SDS011;7044;53.286;8.534;2023-07-13T13:26:10;1.05;;;0.88;;
13943;SDS011;7044;53.286;8.534;2023-07-13T13:28:39;0.90;;;0.80;;
13943;SDS011;7044;53.286;8.534;2023-07-13T13:31:07;1.00;;;0.90;;
13943;SDS011;7044;53.286;8.534;2023-07-13T13:33:38;5.57;;;1.02;;
13943;SDS011;7044;53.286;8.534;2023-07-13T13:36:12;1.02;;;0.95;;
13943;SDS011;7044;53.286;8.534;2023-07-13T13:38:42;1.25;;;0.80;;
13943;SDS011;7044;53.286;8.534;2023-07-13T13:41:09;1.42;;;0.90;;
13943;SDS011;7044;53.286;8.534;2023-07-13T13:43:39;1.77;;;1.00;;
13943;SDS011;7044;53.286;8.534;2023-07-13T13:46:11;1.45;;;0.95;;
13943;SDS011;7044;53.286;8.534;2023-07-13T13:48:41;2.20;;;0.90;;
13943;SDS011;7044;53.286;8.534;2023-07-13T13:51:12;5.45;;;1.38;;
13943;SDS011;7044;53.286;8.534;2023-07-13T13:53:41;1.08;;;1.00;;
13943;SDS011;7044;53.286;8.534;2023-07-13T13:56:08;1.20;;;1.10;;
13943;SDS011;7044;53.286;8.534;2023-07-13T13:58:35;1.15;;;1.05;;
13943;SDS011;7044;53.286;8.534;2023-07-13T14:01:04;1.92;;;1.10;;
13943;SDS011;7044;53.286;8.534;2023-07-13T14:03:33;0.80;;;0.80;;
13943;SDS011;7044;53.286;8.534;2023-07-13T14:06:00;3.22;;;1.13;;
13943;SDS011;7044;53.286;8.534;2023-07-13T14:08:27;1.83;;;1.38;;
13943;SDS011;7044;53.286;8.534;2023-07-13T14:10:54;1.00;;;0.90;;
13943;SDS011;7044;53.286;8.534;2023-07-13T14:13:24;3.13;;;1.40;;
13943;SDS011;7044;53.286;8.534;2023-07-13T14:15:53;1.85;;;1.10;;
13943;SDS011;7044;53.286;8.534;2023-07-13T14:18:22;9.65;;;1.35;;
13943;SDS011;7044;53.286;8.534;2023-07-13T14:20:49;2.45;;;1.10;;
13943;SDS011;7044;53.286;8.534;2023-07-13T14:23:17;1.20;;;1.00;;
13943;SDS011;7044;53.286;8.534;2023-07-13T14:25:44;1.30;;;1.20;;
13943;SDS011;7044;53.286;8.534;2023-07-13T14:28:18;1.67;;;1.42;;
13943;SDS011;7044;53.286;8.534;2023-07-13T14:30:47;3.05;;;1.20;;
13943;SDS011;7044;53.286;8.534;2023-07-13T14:33:14;2.13;;;1.20;;
13943;SDS011;7044;53.286;8.534;2023-07-13T14:35:43;1.63;;;1.15;;
13943;SDS011;7044;53.286;8.534;2023-07-13T14:38:11;1.50;;;1.17;;
13943;SDS011;7044;53.286;8.534;2023-07-13T14:40:41;1.38;;;1.27;;
13943;SDS011;7044;53.286;8.534;2023-07-13T14:43:09;1.85;;;1.50;;
13943;SDS011;7044;53.286;8.534;2023-07-13T14:45:38;2.28;;;1.40;;
13943;SDS011;7044;53.286;8.534;2023-07-13T14:48:13;2.58;;;1.55;;
13943;SDS011;7044;53.286;8.534;2023-07-13T14:50:43;2.42;;;1.70;;
13943;SDS011;7044;53.286;8.534;2023-07-13T14:53:10;2.08;;;1.58;;
13943;SDS011;7044;53.286;8.534;2023-07-13T14:55:37;1.63;;;1.50;;
13943;SDS011;7044;53.286;8.534;2023-07-13T14:58:06;2.28;;;1.42;;
13943;SDS011;7044;53.286;8.534;2023-07-13T15:00:32;1.90;;;1.40;;
13943;SDS011;7044;53.286;8.534;2023-07-13T15:03:00;1.85;;;1.52;;
13943;SDS011;7044;53.286;8.534;2023-07-13T15:05:29;1.92;;;1.40;;
13943;SDS011;7044;53.286;8.534;2023-07-13T15:07:59;1.50;;;1.40;;
13943;SDS011;7044;53.286;8.534;2023-07-13T15:10:28;2.75;;;1.50;;
13943;SDS011;7044;53.286;8.534;2023-07-13T15:12:58;1.90;;;1.58;;
13943;SDS011;7044;53.286;8.534;2023-07-13T15:15:27;1.55;;;1.40;;